LiveATC.Net - Listen to live air traffic control over the Internet!

ICAO: KPLU  IATA: PLU   Airport: Pierce County Airport - Thun Field
City: Puyallup   State/Province: Washington
Country: United States   Continent: North America
KPLU METAR Weather: KPLU 240115Z AUTO VRB04KT 10SM -DZ SCT023 BKN028 OVC035 05/03 A2981 RMK AO2
KPLU Flight Activity (FlightAware)
KPLU Webcam:  (Airport Webcams) 
KPLU Airport Info   (AirNav) (iFlightPlanner)
KPLU VFR Sectional Chart   (iFlightPlanner) 
KPLU IFR Low Chart   (iFlightPlanner) 
KPLU Clearance/Seattle App
Feed Status: DOWN
Last heard on: 2018-03-23 01:43:03 (1 days 0 hours 17 minutes ago)
KPLU Clearance/Seattle App Audio Archives
KPLU Clearance Delivery121.850
Seattle Approach126.500

Sponsored by:  Clover Park Technical College


Unauthorized use prohibited. See Terms of Service

Find LiveATC Audio Streams

Airport/ARTCC Code

Frequency Search
(e.g., 124.400, 128.75)
Site-wide search

Browse LiveATC Feeds
LiveATC Coverage Map
Top 50 LiveATC Feeds
Bad Weather Areas

Offer a LiveATC Feed
Press Inquiries

LiveATC on iPhone
LiveATC on Android

Windows Phone
Windows 8/10

LiveATC Mobile
(Mobile browser)

ATC Audio Archives
Interesting Recordings

LiveATC Forums

Home Page
Make a Donation
Terms of Use
Privacy Policy

Canadian Air Freqs


FAA Airport Status
Nat'l Airspace Status
Arrival Demand Charts

Server Software By: